Terminal Aerodrome Forecast
Issued by NWS Charleston, WV

Current Version | Previous Version | Graphics & Text | Print | Product List | Glossary On
Versions: 1 2 3 4 5 6 7 8 9 10 11 12 13 14 15 16 17 18 19 20 21 22 23 24 25 26 27
000
FTUS41 KRLX 270200 AAA
TAFEKN
TAF AMD
KEKN 270241Z 2703/2724 00000KT P6SM SCT045 BKN090
      TEMPO 2704/2705 4SM SHRA BR BKN045
     FM270800 VRB03KT P6SM VCTS SCT040CB BKN060
      TEMPO 2708/2711 2SM TSRA BR BKN025CB
     FM271100 VRB03KT P6SM SCT040 BKN100
     FM271500 24007KT P6SM SCT035
     FM272000 22008G16KT P6SM +TSRA SCT045CB BKN100=

USA.gov is the U.S. government's official web portal to all federal, state and local government web resources and services.